• Join FlightAware (Why Join?)
  • Login
  • US Flag 
03:08PM EDT


 

Airport Tracker/Info


-or-


 

Live Flight TrackerFlight Track Log ✈ N50KC ✈ 09-Sep-2013 ✈ KHPN - ELLX / LUX

Flight Track Log - Related Links

Times and Time Zones

All times are in EDT time to prevent confusion due to time zone crossing. See the N50KC flight status page for this flight to view local times or setup timezone preferences in your user account.

Time Position Orientation Groundspeed Altitude Reporting Facility
EDT Latitude Longitude Course Direction KTS MPH feet Rate Location/Type
09:02PM 49.4667 -51.9500 63° Northeast 540 621 42,400  Level Gander Center
09:02PM 49.5167 -51.8000 63° Northeast 550 633 42,700 480 Climbing Moncton Center
09:03PM 49.5667 -51.6333 65° Northeast 550 633 43,100 420 Climbing Gander Center
09:04PM 49.6167 -51.4333 69° East 550 633 43,500 300 Climbing Gander Center
09:05PM 49.6833 -51.2167 64° Northeast 550 633 43,700 240 Climbing Gander Center
09:06PM 49.7167 -51.0000 77° East 560 644 44,000 300 Climbing Gander Center
09:07PM 49.7833 -50.7500 67° East 550 633 44,300 300 Climbing Gander Center
09:08PM 49.8500 -50.4833 69° East 550 633 44,700 300 Climbing Moncton Center
09:09PM 49.9000 -50.3000 67° East 550 633 44,900 120 Climbing Gander Center
09:10PM 49.9500 -50.1167 67° East 550 633 45,000  Climbing Gander Center
09:11PM 50.0000 -49.8833 71° East 540 621 45,000  Level Gander Center
09:12PM 50.0000 -50.0000 60° Northeast 528 608 45,000  Level ETMS Enhanced Traffic Management System
09:12PM 50.0833 -49.6833 60° Northeast 540 621 45,000  Level Gander Center
09:13PM 50.1500 -49.4500 66° East 550 633 45,000  Level Gander Center
09:14PM 50.2333 -49.2500 57° Northeast 540 621 45,000  Level Gander Center
09:15PM 50.3000 -49.0667 60° Northeast 540 621 45,000  Level Gander Center
09:16PM 50.3667 -48.8500 64° Northeast 540 621 45,000  Level Gander Center
09:17PM 50.4500 -48.6333 59° Northeast 540 621 45,000  Level Gander Center
09:18PM 50.5167 -48.4333 62° Northeast 550 633 45,000  Level Gander Center
09:19PM 50.5667 -48.2333 68° East 540 621 45,000  Level Gander Center
09:22PM 50.6891 -47.8947 60° Northeast  Level FlightAware Approximate
09:29PM 51.1514 -46.5733 60° Northeast  Level FlightAware Approximate
09:30PM 51.2162 -46.3824 61° Northeast  Level FlightAware Approximate
09:31PM 51.2807 -46.1909 62° Northeast  Level FlightAware Approximate
09:32PM 51.3428 -45.9965 63° Northeast  Level FlightAware Approximate
09:33PM 51.4034 -45.8013 63° Northeast  Level FlightAware Approximate
09:34PM 51.4637 -45.6056 64° Northeast  Level FlightAware Approximate
09:35PM 51.5237 -45.4094 64° Northeast  Level FlightAware Approximate
09:36PM 51.5834 -45.2127 64° Northeast  Level FlightAware Approximate
09:37PM 51.6427 -45.0154 64° Northeast  Level FlightAware Approximate
09:38PM 51.7017 -44.8177 64° Northeast  Level FlightAware Approximate
09:39PM 51.7604 -44.6194 64° Northeast  Level FlightAware Approximate
09:40PM 51.8187 -44.4206 65° Northeast  Level FlightAware Approximate
09:41PM 51.8767 -44.2213 65° Northeast  Level FlightAware Approximate
09:42PM 51.9344 -44.0215 65° Northeast  Level FlightAware Approximate
09:43PM 51.9917 -43.8211 65° Northeast  Level FlightAware Approximate
09:44PM 52.0488 -43.6204 65° Northeast  Level FlightAware Approximate
09:45PM 52.1057 -43.4192 65° Northeast  Level FlightAware Approximate
09:46PM 52.1622 -43.2175 65° Northeast  Level FlightAware Approximate
09:47PM 52.2184 -43.0153 66° East  Level FlightAware Approximate
09:48PM 52.2743 -42.8126 66° East  Level FlightAware Approximate
09:49PM 52.3298 -42.6094 66° East  Level FlightAware Approximate
09:50PM 52.3849 -42.4057 66° East  Level FlightAware Approximate
09:51PM 52.4397 -42.2014 66° East  Level FlightAware Approximate
09:52PM 52.4942 -41.9967 66° East  Level FlightAware Approximate
09:53PM 52.5483 -41.7914 66° East  Level FlightAware Approximate
09:54PM 52.6020 -41.5857 67° East  Level FlightAware Approximate
09:55PM 52.6554 -41.3794 67° East  Level FlightAware Approximate
09:56PM 52.7084 -41.1727 67° East  Level FlightAware Approximate
09:57PM 52.7611 -40.9654 67° East  Level FlightAware Approximate
09:58PM 52.8134 -40.7576 67° East  Level FlightAware Approximate
09:59PM 52.8653 -40.5494 67° East  Level FlightAware Approximate
10:00PM 52.9169 -40.3406 68° East  Level FlightAware Approximate
10:00PM 53.0000 -40.0000 76° East 504 580 45,000  Level ETMS Enhanced Traffic Management System
10:01PM 52.9681 -40.1314 68° East  Level FlightAware Approximate
10:02PM 53.0116 -39.9178 77° East  Level FlightAware Approximate
10:03PM 53.0422 -39.6973 77° East  Level FlightAware Approximate
10:04PM 53.0725 -39.4765 77° East  Level FlightAware Approximate
10:05PM 53.1023 -39.2554 77° East  Level FlightAware Approximate
10:06PM 53.3065 -37.7194 78° East 504 580 45,000  Level FlightAware Transoceanic
10:07PM 53.3347 -37.4896 78° East 504 580 45,000  Level FlightAware Transoceanic
10:08PM 53.3625 -37.2595 79° East 504 580 45,000  Level FlightAware Transoceanic
10:09PM 53.3899 -37.0290 79° East 504 580 45,000  Level FlightAware Transoceanic
10:10PM 53.4168 -36.7983 79° East 504 580 45,000  Level FlightAware Transoceanic
10:11PM 53.4433 -36.5673 79° East 504 580 45,000  Level FlightAware Transoceanic
10:12PM 53.4693 -36.3361 79° East 504 580 45,000  Level FlightAware Transoceanic
10:13PM 53.4949 -36.1045 80° East 504 580 45,000  Level FlightAware Transoceanic
10:14PM 53.5200 -35.8727 80° East 504 580 45,000  Level FlightAware Transoceanic
10:15PM 53.5447 -35.6406 80° East 504 580 45,000  Level FlightAware Transoceanic
10:16PM 53.5689 -35.4082 80° East 504 580 45,000  Level FlightAware Transoceanic
10:17PM 53.5927 -35.1755 80° East 504 580 45,000  Level FlightAware Transoceanic
10:18PM 53.6160 -34.9426 81° East 504 580 45,000  Level FlightAware Transoceanic
10:19PM 53.6389 -34.7095 81° East 504 580 45,000  Level FlightAware Transoceanic
10:20PM 53.6613 -34.4761 81° East 504 580 45,000  Level FlightAware Transoceanic
10:21PM 53.6832 -34.2424 81° East 504 580 45,000  Level FlightAware Transoceanic
10:22PM 53.7047 -34.0085 81° East 504 580 45,000  Level FlightAware Transoceanic
10:23PM 53.7258 -33.7744 81° East 504 580 45,000  Level FlightAware Transoceanic
10:24PM 53.7464 -33.5400 82° East 504 580 45,000  Level FlightAware Transoceanic
10:25PM 53.7665 -33.3054 82° East 504 580 45,000  Level FlightAware Transoceanic
10:26PM 53.7862 -33.0706 82° East 504 580 45,000  Level FlightAware Transoceanic
10:27PM 53.8054 -32.8356 82° East 504 580 45,000  Level FlightAware Transoceanic
10:28PM 53.8242 -32.6003 82° East 504 580 45,000  Level FlightAware Transoceanic
10:29PM 53.8425 -32.3649 83° East 504 580 45,000  Level FlightAware Transoceanic
10:30PM 53.8603 -32.1292 83° East 504 580 45,000  Level FlightAware Transoceanic
10:31PM 53.8777 -31.8934 83° East 504 580 45,000  Level FlightAware Transoceanic
10:32PM 53.8946 -31.6573 83° East 504 580 45,000  Level FlightAware Transoceanic
10:33PM 53.9111 -31.4211 83° East 504 580 45,000  Level FlightAware Transoceanic
10:34PM 53.9271 -31.1847 84° East 504 580 45,000  Level FlightAware Transoceanic
10:35PM 53.9426 -30.9481 84° East 504 580 45,000  Level FlightAware Transoceanic
10:36PM 53.9576 -30.7113 84° East 504 580 45,000  Level FlightAware Transoceanic
10:37PM 53.9722 -30.4744 84° East 504 580 45,000  Level FlightAware Transoceanic
10:38PM 53.9863 -30.2373 84° East 504 580 45,000  Level FlightAware Transoceanic
10:39PM 53.9996 -30.0069 84° East  Level FlightAware Approximate
10:40PM 54.0125 -29.7763 84° East  Level FlightAware Approximate
10:41PM 54.0088 -29.7827 86° East  Level FlightAware Approximate
10:42PM 54.0178 -29.5516 86° East  Level FlightAware Approximate
10:42PM 54.0000 -30.0000 86° East 503 579 45,000  Level ETMS Enhanced Traffic Management System
10:43PM 54.0263 -29.3204 86° East  Level FlightAware Approximate
10:44PM 54.0344 -29.0891 87° East  Level FlightAware Approximate
10:45PM 54.0421 -28.8577 87° East  Level FlightAware Approximate
10:46PM 54.0493 -28.6262 87° East  Level FlightAware Approximate
10:47PM 54.0560 -28.3947 87° East  Level FlightAware Approximate
10:48PM 54.0640 -28.0984 87° East 503 579 45,000  Level FlightAware Transoceanic
10:49PM 54.0699 -27.8603 88° East 503 579 45,000  Level FlightAware Transoceanic
10:50PM 54.0753 -27.6222 88° East 503 579 45,000  Level FlightAware Transoceanic
10:51PM 54.0802 -27.3840 88° East 503 579 45,000  Level FlightAware Transoceanic
10:52PM 54.0847 -27.1458 88° East 503 579 45,000  Level FlightAware Transoceanic
10:53PM 54.0887 -26.9075 88° East 503 579 45,000  Level FlightAware Transoceanic
10:54PM 54.0923 -26.6691 89° East 503 579 45,000  Level FlightAware Transoceanic
10:55PM 54.0953 -26.4308 89° East 503 579 45,000  Level FlightAware Transoceanic
10:56PM 54.0979 -26.1924 89° East 503 579 45,000  Level FlightAware Transoceanic
10:57PM 54.1000 -25.9539 89° East 503 579 45,000  Level FlightAware Transoceanic
10:58PM 54.1017 -25.7155 89° East 503 579 45,000  Level FlightAware Transoceanic
10:59PM 54.1029 -25.4770 90° East 503 579 45,000  Level FlightAware Transoceanic
11:00PM 54.1036 -25.2385 90° East 503 579 45,000  Level FlightAware Transoceanic
11:01PM 54.1038 -25.0000 90° East 503 579 45,000  Level FlightAware Transoceanic
11:02PM 54.1036 -24.7615 90° East 503 579 45,000  Level FlightAware Transoceanic
11:03PM 54.1029 -24.5230 90° East 503 579 45,000  Level FlightAware Transoceanic
11:04PM 54.1017 -24.2845 91° East 503 579 45,000  Level FlightAware Transoceanic
11:05PM 54.1000 -24.0461 91° East 503 579 45,000  Level FlightAware Transoceanic
11:06PM 54.0979 -23.8076 91° East 503 579 45,000  Level FlightAware Transoceanic
11:07PM 54.0953 -23.5692 91° East 503 579 45,000  Level FlightAware Transoceanic
11:08PM 54.0923 -23.3309 91° East 503 579 45,000  Level FlightAware Transoceanic
11:09PM 54.0887 -23.0925 92° East 503 579 45,000  Level FlightAware Transoceanic
11:10PM 54.0847 -22.8542 92° East 503 579 45,000  Level FlightAware Transoceanic
11:11PM 54.0802 -22.6160 92° East 503 579 45,000  Level FlightAware Transoceanic
11:12PM 54.0753 -22.3778 92° East 503 579 45,000  Level FlightAware Transoceanic
11:13PM 54.0699 -22.1397 92° East 503 579 45,000  Level FlightAware Transoceanic
11:14PM 54.0640 -21.9016 93° East 503 579 45,000  Level FlightAware Transoceanic
11:15PM 54.0576 -21.6636 93° East 503 579 45,000  Level FlightAware Transoceanic
11:16PM 54.0508 -21.4257 93° East 503 579 45,000  Level FlightAware Transoceanic
11:17PM 54.0435 -21.1878 93° East 503 579 45,000  Level FlightAware Transoceanic
11:18PM 54.0358 -20.9501 93° East 503 579 45,000  Level FlightAware Transoceanic
11:19PM 54.0275 -20.7124 93° East 503 579 45,000  Level FlightAware Transoceanic
11:20PM 54.0188 -20.4748 94° East 503 579 45,000  Level FlightAware Transoceanic
11:21PM 54.0096 -20.2374 94° East 503 579 45,000  Level FlightAware Transoceanic
11:22PM 54.0003 -20.0063 94° East  Level FlightAware Approximate
11:23PM 53.9906 -19.7754 94° East  Level FlightAware Approximate
11:24PM 53.9942 -19.7814 93° East  Level FlightAware Approximate
11:25PM 53.9876 -19.5502 93° East  Level FlightAware Approximate
11:26PM 53.9806 -19.3190 93° East  Level FlightAware Approximate
11:27PM 53.9731 -19.0880 93° East  Level FlightAware Approximate
11:28PM 53.9652 -18.8570 93° East  Level FlightAware Approximate
11:29PM 53.9568 -18.6261 93° East  Level FlightAware Approximate
11:30PM 53.9480 -18.3953 94° East  Level FlightAware Approximate
11:31PM 53.9388 -18.1646 94° East  Level FlightAware Approximate
11:32PM 53.9291 -17.9340 94° East  Level FlightAware Approximate
11:33PM 53.9189 -17.7035 94° East  Level FlightAware Approximate
11:34PM 53.9084 -17.4732 94° East  Level FlightAware Approximate
11:35PM 53.8974 -17.2429 95° East  Level FlightAware Approximate
11:36PM 53.8859 -17.0128 95° East  Level FlightAware Approximate
11:37PM 53.8740 -16.7828 95° East  Level FlightAware Approximate
11:38PM 53.8617 -16.5529 95° East  Level FlightAware Approximate
11:39PM 53.8489 -16.3232 95° East  Level FlightAware Approximate
11:40PM 53.8357 -16.0936 95° East  Level FlightAware Approximate
11:41PM 53.8221 -15.8642 96° East  Level FlightAware Approximate
11:42PM 53.8080 -15.6349 96° East  Level FlightAware Approximate
11:43PM 53.7935 -15.4058 96° East  Level FlightAware Approximate
11:44PM 53.7785 -15.1768 96° East  Level FlightAware Approximate
11:45PM 53.7633 -14.9480 96° East  Level FlightAware Approximate
11:46PM 53.7480 -14.7192 96° East  Level FlightAware Approximate
11:47PM 53.7323 -14.4907 97° East  Level FlightAware Approximate
11:48PM 53.7162 -14.2622 97° East  Level FlightAware Approximate
11:49PM 53.6997 -14.0340 97° East  Level FlightAware Approximate
11:50PM 53.6827 -13.8060 97° East  Level FlightAware Approximate
11:51PM 53.6653 -13.5781 97° East  Level FlightAware Approximate
11:52PM 53.6475 -13.3504 97° East  Level FlightAware Approximate
11:53PM 53.6292 -13.1229 98° East  Level FlightAware Approximate
11:54PM 53.6105 -12.8957 98° East  Level FlightAware Approximate
11:55PM 53.5913 -12.6686 98° East  Level FlightAware Approximate
11:56PM 53.5718 -12.4417 98° East  Level FlightAware Approximate
11:57PM 53.5516 -12.2151 98° East  Level FlightAware Approximate
11:58PM 53.5310 -11.9888 99° East  Level FlightAware Approximate
11:59PM 53.5099 -11.7626 99° East  Level FlightAware Approximate
12:00AM 53.4885 -11.5367 99° East  Level FlightAware Approximate
12:01AM 53.4665 -11.3110 99° East  Level FlightAware Approximate
12:02AM 53.4442 -11.0855 99° East  Level FlightAware Approximate
12:03AM 53.4215 -10.8603 100° East  Level FlightAware Approximate
12:04AM 53.3983 -10.6353 100° East  Level FlightAware Approximate
12:05AM 53.3747 -10.4105 100° East  Level FlightAware Approximate
12:06AM 53.3507 -10.1861 100° East  Level FlightAware Approximate
12:07AM 53.3262 -9.9618 100° East  Level FlightAware Approximate
12:08AM 53.3013 -9.7379 100° East  Level FlightAware Approximate
12:09AM 53.2760 -9.5141 101° East  Level FlightAware Approximate
12:10AM 53.2503 -9.2907 101° East  Level FlightAware Approximate
12:11AM 53.2242 -9.0675 101° East  Level FlightAware Approximate
12:12AM 53.1977 -8.8446 101° East  Level FlightAware Approximate
12:12AM 52.9480 -9.0020 101° East 478 550 45,000  Level FlightAware UK
12:12AM 52.9254 -8.8973 110° East 478 550 45,000  Level FlightAware UK
12:13AM 52.9021 -8.7914 110° East 478 550 45,000  Level FlightAware UK
12:13AM 52.8786 -8.6853 110° East 474 545 45,000  Level FlightAware UK
12:14AM 52.8549 -8.5786 110° East 476 548 45,000  Level FlightAware UK
12:14AM 52.8310 -8.4726 110° East 476 548 45,000  Level FlightAware UK
12:15AM 52.8069 -8.3658 110° East 474 545 45,000  Level FlightAware UK
12:15AM 52.7826 -8.2578 110° East 480 552 45,000  Level FlightAware UK
12:16AM 52.7580 -8.1483 110° East 482 555 45,000  Level FlightAware UK
12:16AM 52.7333 -8.0411 111° Southeast 480 552 45,000  Level FlightAware UK
12:17AM 52.7085 -7.9337 111° Southeast 478 550 45,000  Level FlightAware UK
12:17AM 52.6838 -7.8270 111° Southeast 470 541 45,000  Level FlightAware UK
12:18AM 52.6592 -7.7204 111° Southeast 476 548 45,000  Level FlightAware UK
12:18AM 52.6344 -7.6133 111° Southeast 482 555 45,000  Level FlightAware UK
12:19AM 52.6091 -7.5059 111° Southeast 482 555 45,000  Level FlightAware UK
12:19AM 52.5835 -7.3977 111° Southeast 478 550 45,000  Level FlightAware UK
12:20AM 52.5575 -7.2887 111° Southeast 484 557 45,000  Level FlightAware UK
12:20AM 52.5315 -7.1800 111° Southeast 482 555 45,000  Level FlightAware UK
12:21AM 52.5058 -7.0708 111° Southeast 482 555 45,000  Level FlightAware UK
12:21AM 52.4796 -6.9619 112° Southeast 482 555 45,000  Level FlightAware UK
12:22AM 52.4535 -6.8545 112° Southeast 484 557 45,000  Level FlightAware UK
12:22AM 52.4274 -6.7476 112° Southeast 478 550 45,000  Level FlightAware UK
12:23AM 52.4013 -6.6410 112° Southeast 482 555 45,000  Level FlightAware UK
12:23AM 52.3752 -6.5342 112° Southeast 482 555 45,000  Level FlightAware UK
12:24AM 52.3433 -6.4053 112° Southeast 486 559 45,000  Level FlightAware UK
12:24AM 52.3168 -6.2986 112° Southeast 484 557 45,000  Level FlightAware UK
12:25AM 52.2903 -6.1927 112° Southeast 480 552 45,000  Level FlightAware UK
12:25AM 52.2639 -6.0866 112° Southeast 474 545 45,000  Level FlightAware UK
12:26AM 52.2374 -5.9815 112° Southeast 476 548 45,000  Level FlightAware UK
12:26AM 52.2105 -5.8757 113° Southeast 482 555 45,000  Level FlightAware UK
12:27AM 52.1777 -5.7470 112° Southeast 488 562 45,000  Level FlightAware UK
12:27AM 52.1506 -5.6407 113° Southeast 482 555 45,000  Level FlightAware UK
12:28AM 52.1308 -5.5332 107° East 480 552 45,000  Level FlightAware UK
12:28AM 52.1212 -5.4352 107° East 493 567 45,000  Level FlightAware ADS-B
12:29AM 52.1101 -5.3126 107° East 482 555 45,000  Level FlightAware UK
12:29AM 52.1040 -5.2460 107° East 489 563 45,000  Level FlightAware ADS-B
12:30AM 52.0862 -5.0525 107° East 478 550 45,000  Level FlightAware UK
12:30AM 52.0825 -5.0143 107° East 489 563 45,000  Level FlightAware ADS-B
12:31AM 52.0657 -4.8352 107° East 478 550 45,000  Level FlightAware UK
12:31AM 52.0639 -4.8185 107° East 495 570 45,000  Level FlightAware ADS-B
12:32AM 52.0528 -4.7030 99° East 500 575 45,000  Level FlightAware ADS-B
12:32AM 52.0409 -4.5808 99° East 502 578 45,000  Level FlightAware ADS-B
12:33AM 52.0298 -4.4680 99° East 502 578 45,000  Level FlightAware ADS-B
12:33AM 52.0111 -4.2790 99° East 480 552 45,000  Level FlightAware UK
12:34AM 52.0026 -4.1953 99° East 502 578 45,000  Level FlightAware ADS-B
12:34AM 51.9902 -4.0739 99° East 507 583 45,000  Level FlightAware ADS-B
12:35AM 51.9748 -3.9219 99° East 486 559 45,000  Level FlightAware UK
12:35AM 51.9721 -3.8989 99° East 508 585 45,000  Level FlightAware ADS-B
12:36AM 51.9510 -3.6972 99° East 482 555 45,000  Level FlightAware UK
12:36AM 51.9503 -3.6906 99° East 506 582 45,000  Level FlightAware ADS-B
12:37AM 51.9377 -3.5722 100° East 507 583 45,000  Level FlightAware ADS-B
12:37AM 51.9256 -3.4590 100° East 507 583 45,000  Level FlightAware ADS-B
12:38AM 51.9127 -3.3403 100° East 504 580 45,000  Level FlightAware ADS-B
12:38AM 51.9006 -3.2296 100° East 502 578 45,000  Level FlightAware ADS-B
12:39AM 51.8883 -3.1187 100° East 500 575 45,000  Level FlightAware ADS-B
12:39AM 51.8760 -3.0087 100° East 482 555 45,000  Level FlightAware UK
12:39AM 51.8760 -3.0082 100° East 498 573 45,000  Level FlightAware ADS-B
12:40AM 51.8637 -2.8985 100° East 480 552 45,000  Level FlightAware UK
12:40AM 51.8635 -2.8971 100° East 499 574 45,000  Level FlightAware ADS-B
12:40AM 51.8501 -2.7791 100° East 501 577 45,000  Level FlightAware ADS-B
12:41AM 51.8372 -2.6664 100° East 503 579 45,000  Level FlightAware ADS-B
12:41AM 51.8242 -2.5542 101° East 506 582 45,000  Level FlightAware ADS-B
12:42AM 51.8111 -2.4410 101° East 505 581 45,000  Level FlightAware ADS-B
12:42AM 51.7978 -2.3289 101° East 505 581 45,000  Level FlightAware ADS-B
12:43AM 51.7847 -2.2183 101° East 504 580 45,000  Level FlightAware ADS-B
12:43AM 51.7712 -2.1057 101° East 504 580 45,000  Level FlightAware ADS-B
12:44AM 51.7579 -1.9946 101° East 503 579 45,000  Level FlightAware ADS-B
12:44AM 51.7439 -1.8795 101° East 502 578 45,000  Level FlightAware ADS-B
12:45AM 51.7304 -1.7697 101° East 502 578 45,000  Level FlightAware ADS-B
12:45AM 51.7168 -1.6595 101° East 505 581 45,000  Level FlightAware ADS-B
12:46AM 51.7029 -1.5481 101° East 509 586 45,000  Level FlightAware ADS-B
12:46AM 51.7032 -1.5502 101° East 484 557 45,000  Level FlightAware UK
12:46AM 51.6891 -1.4379 101° East 486 559 45,000  Level FlightAware UK
12:46AM 51.6885 -1.4339 101° East 509 586 45,000  Level FlightAware ADS-B
12:47AM 51.6742 -1.3212 102° East 510 587 45,000  Level FlightAware ADS-B
12:47AM 51.6597 -1.2078 102° East 510 587 45,000  Level FlightAware ADS-B
12:48AM 51.6451 -1.0946 102° East 510 587 45,000  Level FlightAware ADS-B
12:48AM 51.6305 -0.9816 102° East 509 586 45,000  Level FlightAware ADS-B
12:49AM 51.6159 -0.8704 102° East 508 585 45,000  Level FlightAware ADS-B
12:49AM 51.6013 -0.7593 102° East 507 583 45,000  Level FlightAware ADS-B
12:50AM 51.5865 -0.6486 102° East 505 581 45,000  Level FlightAware ADS-B
12:50AM 51.5718 -0.5390 102° East 505 581 45,000  Level FlightAware ADS-B
12:51AM 51.5560 -0.4213 102° East 506 582 45,000  Level FlightAware ADS-B
12:51AM 51.5406 -0.3084 102° East 508 585 45,000  Level FlightAware ADS-B
12:52AM 51.5250 -0.1947 102° East 508 585 45,000  Level FlightAware ADS-B
12:52AM 51.5098 -0.0846 102° East 508 585 45,000  Level FlightAware ADS-B
12:53AM 51.4942 0.0269 103° East 508 585 45,000  Level FlightAware ADS-B
12:53AM 51.4788 0.1369 103° East 508 585 45,000  Level FlightAware ADS-B
12:54AM 51.4612 0.2614 103° East 509 586 45,000  Level FlightAware ADS-B
12:55AM 51.4453 0.3727 103° East 509 586 45,000  Level FlightAware ADS-B
12:55AM 51.4291 0.4858 103° East 510 587 45,000  Level FlightAware ADS-B
12:56AM 51.4131 0.5959 103° East 511 588 45,000  Level FlightAware ADS-B
12:56AM 51.3961 0.7125 103° East 511 588 45,000  Level FlightAware ADS-B
12:57AM 51.3791 0.8283 103° East 510 587 45,000  Level FlightAware ADS-B
12:57AM 51.3629 0.9380 103° East 510 587 45,000  Level FlightAware ADS-B
12:58AM 51.3463 1.0499 103° East 511 588 45,000  Level FlightAware ADS-B
12:58AM 51.3293 1.1629 104° East 512 589 45,000  Level FlightAware ADS-B
12:59AM 51.3120 1.2778 104° East 510 587 45,000  Level FlightAware ADS-B
12:59AM 51.2948 1.3906 104° East 509 586 45,000  Level FlightAware ADS-B
01:00AM 51.2777 1.5001 104° East 509 586 45,000  Level FlightAware ADS-B
01:00AM 51.2681 1.5448 109° East 511 588 45,000  Level FlightAware ADS-B
01:00AM 51.2386 1.6519 114° Southeast 515 593 45,000  Level FlightAware ADS-B
01:01AM 51.2077 1.7611 114° Southeast 516 594 45,000  Level FlightAware ADS-B
01:01AM 51.1774 1.8685 114° Southeast 513 590 45,000  Level FlightAware ADS-B
01:02AM 51.1366 2.0138 114° Southeast 482 555 45,000  Level FlightAware UK
01:02AM 51.1327 2.0259 114° Southeast 509 586 45,000  Level FlightAware ADS-B
01:03AM 51.0779 2.2177 114° Southeast 509 586 45,000  Level FlightAware ADS-B
01:04AM 51.0484 2.3202 114° Southeast 488 562 45,000  Level FlightAware UK
01:04AM 51.0453 2.3312 114° Southeast 518 596 45,000  Level FlightAware ADS-B
01:04AM 51.0142 2.4390 115° Southeast 519 597 45,000  Level FlightAware ADS-B
01:05AM 50.9837 2.5441 115° Southeast 520 598 45,000  Level FlightAware ADS-B
01:05AM 50.9535 2.6479 115° Southeast 518 596 45,000  Level FlightAware ADS-B
01:06AM 50.9236 2.7503 115° Southeast 513 590 45,000  Level FlightAware ADS-B
01:06AM 50.8926 2.8557 115° Southeast 511 588 45,000  Level FlightAware ADS-B
01:07AM 50.8633 2.9576 115° Southeast 484 557 45,000  Level FlightAware UK
01:07AM 50.8609 2.9632 115° Southeast 508 585 45,000  Level FlightAware ADS-B
01:07AM 50.8272 3.0781 115° Southeast 484 557 45,000  Level FlightAware UK
01:07AM 50.8244 3.0864 115° Southeast 511 588 45,000  Level FlightAware ADS-B
01:08AM 50.7664 3.2814 115° Southeast 488 562 45,000  Level FlightAware UK
01:09AM 50.7360 3.3830 115° Southeast 490 564 45,000  Level FlightAware UK
01:09AM 50.7055 3.4844 115° Southeast 486 559 45,000  Level FlightAware UK
01:10AM 50.6749 3.5851 116° Southeast 484 557 45,000  Level FlightAware UK
01:10AM 50.6441 3.6851 116° Southeast 486 559 45,000  Level FlightAware UK
01:11AM 50.6137 3.7852 116° Southeast 488 562 45,000 -840 Level FlightAware UK
01:11AM 50.5834 3.8851 115° Southeast 484 557 44,200 -2,220 Descending FlightAware UK
01:12AM 50.5530 3.9850 116° Southeast 480 552 42,800 -2,700 Descending FlightAware UK
01:12AM 50.5220 4.0845 116° Southeast 480 552 41,500 -2,700 Descending FlightAware UK
01:13AM 50.4905 4.1837 117° Southeast 486 559 40,100 -2,880 Descending FlightAware UK
01:13AM 50.4582 4.2830 117° Southeast 484 557 38,600 -3,000 Descending FlightAware UK
01:14AM 50.4263 4.3818 117° Southeast 486 559 37,100 -3,000 Descending FlightAware UK
01:16AM 50.3006 4.6778 124° Southeast  Level Estimated
01:23AM 49.7648 5.9042 124° Southeast  Level Estimated
01:24AM 49.6872 6.0771 125° Southeast  Level Estimated
01:25AM 49.6266 6.2115 125° Southeast  Level Estimated
01:26AM 49.6266 6.2115 201° Southwest  Level Estimated
01:27AM 49.6266 6.2115 201° Southwest  Level Estimated
01:28AM 49.6266 6.2115 201° Southwest  Level Estimated
01:29AM 49.6266 6.2115 201° Southwest  Level Estimated
01:30AM 49.6266 6.2115 201° Southwest  Level Estimated
01:31AM 49.6266 6.2115 201° Southwest  Level Estimated
01:32AM 49.6266 6.2115 201° Southwest  Level Estimated
01:33AM 49.6266 6.2115 201° Southwest  Level Estimated
01:34AM 49.6266 6.2115 201° Southwest  Level Estimated
01:35AM 49.6266 6.2115 201° Southwest  Level Estimated
01:36AM 49.6266 6.2115 201° Southwest  Level Estimated
01:37AM 49.6266 6.2115 201° Southwest  Level Estimated
01:38AM 49.6266 6.2115 201° Southwest  Level Estimated
01:39AM 49.6266 6.2115 201° Southwest  Level Estimated
01:40AM 49.6266 6.2115 201° Southwest  Level Estimated
01:41AM 49.6266 6.2115 201° Southwest  Level Estimated
01:42AM 49.6266 6.2115 201° Southwest  Level Estimated
01:43AM 49.6266 6.2115 201° Southwest  Level Estimated
01:44AM 49.6266 6.2115 201° Southwest  Level Estimated
01:45AM 49.6266 6.2115 201° Southwest  Level Estimated
01:46AM 49.6266 6.2115 201° Southwest  Level Estimated
01:47AM 49.6266 6.2115 201° Southwest  Level Estimated
01:48AM 49.6266 6.2115 201° Southwest  Level Estimated
01:49AM 49.6266 6.2115 201° Southwest  Level Estimated
01:50AM 49.6266 6.2115 201° Southwest  Level Estimated